createdAt,value
2023-07-31T00:01:30.293Z,16.93
2023-07-31T00:03:57.320Z,16.91
2023-07-31T00:06:24.325Z,16.91
2023-07-31T00:08:51.404Z,16.85
2023-07-31T00:11:18.301Z,16.89
2023-07-31T00:13:45.197Z,16.88
2023-07-31T00:16:12.525Z,16.93
2023-07-31T00:18:39.322Z,16.92
2023-07-31T00:21:06.418Z,16.95
2023-07-31T00:23:33.364Z,17.00
2023-07-31T00:26:00.299Z,17.01
2023-07-31T00:28:27.785Z,16.96
2023-07-31T00:30:54.680Z,17.00
2023-07-31T00:33:21.524Z,16.95
2023-07-31T00:35:49.682Z,16.84
2023-07-31T00:38:16.533Z,16.72
2023-07-31T00:40:43.458Z,16.67
2023-07-31T00:43:10.383Z,16.63
2023-07-31T00:45:37.808Z,16.67
2023-07-31T00:48:07.772Z,16.71
2023-07-31T00:50:36.332Z,16.72
2023-07-31T00:53:03.477Z,16.75
2023-07-31T00:55:31.355Z,16.77
2023-07-31T00:57:58.480Z,16.70
2023-07-31T01:00:25.453Z,16.64
2023-07-31T01:02:53.127Z,16.65
2023-07-31T01:05:54.761Z,16.67
2023-07-31T01:08:45.431Z,16.58
2023-07-31T01:11:29.589Z,16.51
2023-07-31T01:13:57.899Z,16.58
2023-07-31T01:16:28.508Z,16.56
2023-07-31T01:18:55.337Z,16.50
2023-07-31T01:21:36.670Z,16.42
2023-07-31T01:24:50.869Z,16.18
2023-07-31T01:27:27.818Z,16.19
2023-07-31T01:30:15.322Z,16.11
2023-07-31T01:32:47.627Z,16.20
2023-07-31T01:35:14.660Z,16.16
2023-07-31T01:37:41.649Z,16.18
2023-07-31T01:40:10.070Z,16.25
2023-07-31T01:42:37.295Z,16.32
2023-07-31T01:45:05.101Z,16.34
2023-07-31T01:47:32.015Z,16.34
2023-07-31T01:49:59.026Z,16.37
2023-07-31T01:52:25.884Z,16.43
2023-07-31T01:54:53.396Z,16.42
2023-07-31T01:57:20.328Z,16.41
2023-07-31T01:59:47.412Z,16.40
2023-07-31T02:02:14.618Z,16.31
2023-07-31T02:04:41.938Z,16.28
2023-07-31T02:07:08.766Z,16.22
2023-07-31T02:09:35.800Z,16.16
2023-07-31T02:12:02.930Z,16.20
2023-07-31T02:14:29.916Z,16.18
2023-07-31T02:16:57.091Z,16.18
2023-07-31T02:19:24.201Z,16.13
2023-07-31T02:21:51.029Z,16.09
2023-07-31T02:24:17.972Z,16.07
2023-07-31T02:26:44.852Z,16.08
2023-07-31T02:29:11.795Z,16.07
2023-07-31T02:31:38.953Z,16.08
2023-07-31T02:34:05.826Z,16.14
2023-07-31T02:36:32.718Z,16.15
2023-07-31T02:38:59.603Z,16.14
2023-07-31T02:41:26.542Z,16.13
2023-07-31T02:43:53.371Z,16.11
2023-07-31T02:46:21.709Z,16.06
2023-07-31T02:48:48.679Z,16.01
2023-07-31T02:51:15.735Z,15.99
2023-07-31T02:53:42.846Z,16.00
2023-07-31T02:56:09.801Z,16.01
2023-07-31T02:58:36.989Z,16.00
2023-07-31T03:01:04.057Z,16.01
2023-07-31T03:03:31.280Z,15.92
2023-07-31T03:05:58.264Z,15.97
2023-07-31T03:08:25.146Z,16.04
2023-07-31T03:10:51.953Z,16.05
2023-07-31T03:13:18.793Z,16.03
2023-07-31T03:15:45.856Z,16.03
2023-07-31T03:18:12.767Z,16.05
2023-07-31T03:20:45.229Z,16.06
2023-07-31T03:23:12.409Z,16.01
2023-07-31T03:25:39.568Z,16.05
2023-07-31T03:28:06.641Z,16.04
2023-07-31T03:30:36.394Z,16.02
2023-07-31T03:33:03.318Z,16.08
2023-07-31T03:35:30.433Z,16.14
2023-07-31T03:37:57.519Z,16.08
2023-07-31T03:40:24.727Z,16.04
2023-07-31T03:42:51.918Z,16.03
2023-07-31T03:45:18.717Z,16.03
2023-07-31T03:47:45.867Z,15.99
2023-07-31T03:50:12.985Z,15.97
2023-07-31T03:52:40.017Z,16.01
2023-07-31T03:55:07.106Z,16.10
2023-07-31T03:57:33.996Z,16.12
2023-07-31T04:00:01.051Z,16.17
2023-07-31T04:02:27.950Z,16.22
2023-07-31T04:04:54.898Z,16.18
2023-07-31T04:07:21.874Z,16.20
2023-07-31T04:09:48.681Z,16.28
2023-07-31T04:12:15.645Z,16.30
2023-07-31T04:14:42.566Z,16.32
2023-07-31T04:17:12.198Z,16.34
2023-07-31T04:19:39.392Z,16.35
2023-07-31T04:22:06.590Z,16.30
2023-07-31T04:24:33.430Z,16.34
2023-07-31T04:27:00.404Z,16.39
2023-07-31T04:29:27.293Z,16.36
2023-07-31T04:31:54.111Z,16.31
2023-07-31T04:34:21.059Z,16.29
2023-07-31T04:36:47.898Z,16.33
2023-07-31T04:39:14.853Z,16.35
2023-07-31T04:41:41.659Z,16.34
2023-07-31T04:44:08.553Z,16.34
2023-07-31T04:46:35.461Z,16.37
2023-07-31T04:49:02.360Z,16.39
2023-07-31T04:51:29.307Z,16.40
2023-07-31T04:53:57.507Z,16.37
2023-07-31T04:56:24.640Z,16.33
2023-07-31T04:58:51.554Z,16.31
2023-07-31T05:01:18.575Z,16.30
2023-07-31T05:03:45.629Z,16.34
2023-07-31T05:06:13.408Z,16.31
2023-07-31T05:08:40.266Z,16.31
2023-07-31T05:11:07.446Z,16.26
2023-07-31T05:13:34.338Z,16.25
2023-07-31T05:16:03.219Z,16.31
2023-07-31T05:18:30.560Z,16.36
2023-07-31T05:20:58.919Z,16.42
2023-07-31T05:23:25.940Z,16.44
2023-07-31T05:25:52.840Z,16.39
2023-07-31T05:28:19.939Z,16.32
2023-07-31T05:30:46.904Z,16.33
2023-07-31T05:33:15.059Z,16.46
2023-07-31T05:35:42.446Z,16.58
2023-07-31T05:38:09.500Z,16.72
2023-07-31T05:40:36.541Z,16.79
2023-07-31T05:43:03.843Z,16.83
2023-07-31T05:45:30.704Z,16.87
2023-07-31T05:47:57.598Z,16.93
2023-07-31T05:50:24.564Z,17.03
2023-07-31T05:52:51.750Z,17.12
2023-07-31T05:55:18.814Z,17.19
2023-07-31T05:57:46.922Z,17.25
2023-07-31T06:00:14.967Z,17.29
2023-07-31T06:02:41.948Z,17.33
2023-07-31T06:05:09.350Z,17.44
2023-07-31T06:07:36.523Z,17.57
2023-07-31T06:10:06.557Z,17.68
2023-07-31T06:12:34.599Z,17.75
2023-07-31T06:15:03.588Z,17.84
2023-07-31T06:17:31.219Z,17.92
2023-07-31T06:19:58.838Z,17.98
2023-07-31T06:22:25.754Z,18.08
2023-07-31T06:24:52.820Z,18.16
2023-07-31T06:27:19.684Z,18.23
2023-07-31T06:29:46.619Z,18.28
2023-07-31T06:32:14.187Z,18.29
2023-07-31T06:34:44.163Z,18.27
2023-07-31T06:37:11.083Z,18.30
2023-07-31T06:39:38.605Z,18.30
2023-07-31T06:42:05.856Z,18.29
2023-07-31T06:44:33.129Z,18.30
2023-07-31T06:47:00.406Z,18.34
2023-07-31T06:49:27.202Z,18.42
2023-07-31T06:51:54.023Z,18.50
2023-07-31T06:54:21.005Z,18.55
2023-07-31T06:56:47.962Z,18.62
2023-07-31T06:59:14.830Z,18.67
2023-07-31T07:01:41.763Z,18.73
2023-07-31T07:04:08.772Z,18.78
2023-07-31T07:06:35.889Z,18.85
2023-07-31T07:09:03.189Z,18.91
2023-07-31T07:11:30.228Z,18.94
2023-07-31T07:13:57.111Z,18.91
2023-07-31T07:16:24.302Z,18.92
2023-07-31T07:19:03.773Z,18.98
2023-07-31T07:21:32.068Z,19.04
2023-07-31T07:23:58.988Z,19.13
2023-07-31T07:26:25.912Z,19.23
2023-07-31T07:28:52.961Z,19.24
2023-07-31T07:31:19.966Z,19.31
2023-07-31T07:33:47.044Z,19.42
2023-07-31T07:36:14.470Z,19.54
2023-07-31T07:38:42.165Z,19.68
2023-07-31T07:41:09.112Z,19.84
2023-07-31T07:43:35.949Z,19.99
2023-07-31T07:46:03.382Z,20.04
2023-07-31T07:48:30.387Z,20.04
2023-07-31T07:50:57.227Z,20.10
2023-07-31T07:53:24.015Z,20.25
2023-07-31T07:55:51.070Z,20.39
2023-07-31T07:58:17.913Z,20.37
2023-07-31T08:00:52.168Z,20.41
2023-07-31T08:03:19.469Z,20.41
2023-07-31T08:05:46.596Z,20.52
2023-07-31T08:08:20.042Z,20.56
2023-07-31T08:10:46.878Z,20.73
2023-07-31T08:13:14.021Z,21.05
2023-07-31T08:15:43.953Z,21.14
2023-07-31T08:18:12.977Z,21.08
2023-07-31T08:20:40.125Z,20.95
2023-07-31T08:23:07.026Z,20.87
2023-07-31T08:25:37.214Z,20.92
2023-07-31T08:28:05.269Z,20.84
2023-07-31T08:30:34.838Z,20.85
2023-07-31T08:33:02.158Z,20.93
2023-07-31T08:35:29.710Z,20.99
2023-07-31T08:37:56.659Z,21.06
2023-07-31T08:40:23.703Z,21.12
2023-07-31T08:42:55.063Z,21.17
2023-07-31T08:45:22.168Z,21.11
2023-07-31T08:47:52.418Z,21.14
2023-07-31T08:50:22.057Z,21.33
2023-07-31T08:52:51.415Z,21.44
2023-07-31T08:55:24.593Z,21.56
2023-07-31T08:57:56.221Z,21.66
2023-07-31T09:00:25.655Z,22.09
2023-07-31T09:03:09.458Z,22.30
2023-07-31T09:05:42.762Z,22.21
2023-07-31T09:08:15.492Z,21.94
2023-07-31T09:10:50.801Z,21.85
2023-07-31T09:13:18.656Z,21.81
2023-07-31T09:15:47.501Z,21.71
2023-07-31T09:18:18.419Z,21.71
2023-07-31T09:20:45.448Z,21.69
2023-07-31T09:23:16.434Z,21.72
2023-07-31T09:25:47.699Z,21.81
2023-07-31T09:28:14.728Z,21.85
2023-07-31T09:30:52.818Z,21.90
2023-07-31T09:33:21.205Z,21.94
2023-07-31T09:35:51.194Z,22.17
2023-07-31T09:38:18.426Z,22.45
2023-07-31T09:40:49.835Z,22.48
2023-07-31T09:43:25.358Z,22.80
2023-07-31T09:45:58.126Z,23.10
2023-07-31T09:48:28.844Z,23.14
2023-07-31T09:50:56.316Z,23.21
2023-07-31T09:53:31.413Z,23.14
2023-07-31T09:56:01.013Z,23.12
2023-07-31T09:58:31.159Z,23.38
2023-07-31T10:01:00.666Z,23.34
2023-07-31T10:03:30.701Z,23.18
2023-07-31T10:05:59.545Z,22.92
2023-07-31T10:08:31.285Z,22.86
2023-07-31T10:11:03.304Z,22.76
2023-07-31T10:13:31.755Z,22.86
2023-07-31T10:16:03.789Z,22.70
2023-07-31T10:18:31.214Z,22.95
2023-07-31T10:20:59.243Z,23.26
2023-07-31T10:23:26.554Z,23.73
2023-07-31T10:25:55.492Z,24.27
2023-07-31T10:28:23.175Z,23.81
2023-07-31T10:30:52.907Z,23.98
2023-07-31T10:33:21.401Z,24.22
2023-07-31T10:35:49.648Z,24.35
2023-07-31T10:38:17.094Z,24.37
2023-07-31T10:40:44.311Z,24.23
2023-07-31T10:43:29.217Z,24.07
2023-07-31T10:45:56.379Z,24.01
2023-07-31T10:48:25.033Z,23.88
2023-07-31T10:50:58.122Z,23.68
2023-07-31T10:53:32.561Z,23.68
2023-07-31T10:56:01.202Z,23.76
2023-07-31T10:58:28.597Z,23.84
2023-07-31T11:01:02.439Z,23.89
2023-07-31T11:03:53.809Z,24.01
2023-07-31T11:06:20.909Z,24.07
2023-07-31T11:08:50.714Z,24.20
2023-07-31T11:11:21.780Z,24.09
2023-07-31T11:13:51.808Z,23.90
2023-07-31T11:16:22.333Z,23.81
2023-07-31T11:18:52.326Z,23.77
2023-07-31T11:21:22.778Z,23.75
2023-07-31T11:23:52.942Z,23.83
2023-07-31T11:26:20.796Z,24.14
2023-07-31T11:28:50.031Z,24.33
2023-07-31T11:31:18.660Z,24.76
2023-07-31T11:33:46.528Z,24.79
2023-07-31T11:36:19.637Z,24.60
2023-07-31T11:38:47.051Z,24.33
2023-07-31T11:41:20.347Z,24.02
2023-07-31T11:43:48.725Z,23.94
2023-07-31T11:46:16.648Z,23.88
2023-07-31T11:48:44.198Z,23.99
2023-07-31T11:51:15.082Z,23.89
2023-07-31T11:53:54.627Z,23.69
2023-07-31T11:56:25.211Z,23.70
2023-07-31T11:58:59.290Z,24.04
2023-07-31T12:01:29.022Z,24.17
2023-07-31T12:03:57.470Z,24.06
2023-07-31T12:06:37.851Z,24.02
2023-07-31T12:09:07.399Z,23.89
2023-07-31T12:11:48.828Z,23.94
2023-07-31T12:14:30.823Z,23.94
2023-07-31T12:17:06.324Z,24.06
2023-07-31T12:19:33.978Z,24.55
2023-07-31T12:22:01.313Z,24.78
2023-07-31T12:24:29.310Z,24.93
2023-07-31T12:26:56.336Z,24.91
2023-07-31T12:29:23.357Z,24.76
2023-07-31T12:31:50.605Z,24.95
2023-07-31T12:34:19.686Z,25.21
2023-07-31T12:36:46.895Z,25.79
2023-07-31T12:39:14.771Z,27.23
2023-07-31T12:41:42.347Z,27.58
2023-07-31T12:44:11.024Z,26.95
2023-07-31T12:46:38.823Z,25.99
2023-07-31T12:49:06.413Z,25.28
2023-07-31T12:51:33.480Z,24.96
2023-07-31T12:54:00.301Z,24.75
2023-07-31T12:56:27.294Z,25.12
2023-07-31T12:58:54.157Z,25.51
2023-07-31T13:01:21.038Z,25.42
2023-07-31T13:03:47.944Z,25.57
2023-07-31T13:06:15.314Z,25.35
2023-07-31T13:08:42.365Z,25.08
2023-07-31T13:11:09.502Z,24.91
2023-07-31T13:13:36.540Z,25.11
2023-07-31T13:16:03.510Z,25.02
2023-07-31T13:18:30.588Z,24.78
2023-07-31T13:20:57.551Z,24.59
2023-07-31T13:23:24.437Z,24.47
2023-07-31T13:25:51.491Z,24.43
2023-07-31T13:28:18.352Z,24.41
2023-07-31T13:30:45.361Z,24.32
2023-07-31T13:33:25.188Z,24.34
2023-07-31T13:35:56.818Z,24.43
2023-07-31T13:38:24.011Z,24.56
2023-07-31T13:40:51.217Z,24.73
2023-07-31T13:43:18.191Z,25.15
2023-07-31T13:45:45.203Z,25.38
2023-07-31T13:48:12.150Z,25.35
2023-07-31T13:50:39.104Z,25.19
2023-07-31T13:53:05.914Z,25.04
2023-07-31T13:55:33.066Z,25.18
2023-07-31T13:57:59.922Z,25.30
2023-07-31T14:00:26.880Z,25.52
2023-07-31T14:02:53.915Z,25.77
2023-07-31T14:05:20.951Z,25.48
2023-07-31T14:07:47.873Z,25.11
2023-07-31T14:10:14.798Z,24.91
2023-07-31T14:12:42.978Z,24.83
2023-07-31T14:15:11.979Z,24.73
2023-07-31T14:17:39.057Z,24.61
2023-07-31T14:20:07.368Z,24.63
2023-07-31T14:22:35.142Z,24.62
2023-07-31T14:25:03.093Z,24.61
2023-07-31T14:27:30.175Z,24.71
2023-07-31T14:29:57.307Z,24.68
2023-07-31T14:32:26.244Z,24.60
2023-07-31T14:34:53.199Z,24.52
2023-07-31T14:37:20.249Z,24.40
2023-07-31T14:39:47.108Z,24.20
2023-07-31T14:42:14.028Z,24.13
2023-07-31T14:44:40.896Z,24.11
2023-07-31T14:47:07.680Z,24.06
2023-07-31T14:49:34.619Z,24.05
2023-07-31T14:52:01.636Z,24.07
2023-07-31T14:54:28.466Z,24.27
2023-07-31T14:56:55.476Z,24.35
2023-07-31T14:59:22.349Z,24.38
2023-07-31T15:01:49.227Z,24.38
2023-07-31T15:04:16.267Z,24.38
2023-07-31T15:06:43.250Z,24.44
2023-07-31T15:09:10.239Z,24.39
2023-07-31T15:11:37.179Z,24.31
2023-07-31T15:14:04.413Z,24.36
2023-07-31T15:16:32.536Z,24.35
2023-07-31T15:18:59.534Z,24.35
2023-07-31T15:21:26.500Z,24.35
2023-07-31T15:23:54.304Z,24.45
2023-07-31T15:26:21.722Z,24.44
2023-07-31T15:28:57.492Z,24.50
2023-07-31T15:31:24.891Z,24.52
2023-07-31T15:33:51.780Z,24.66
2023-07-31T15:36:18.655Z,24.74
2023-07-31T15:38:45.593Z,24.53
2023-07-31T15:41:12.557Z,24.44
2023-07-31T15:43:39.657Z,24.38
2023-07-31T15:46:06.629Z,24.22
2023-07-31T15:48:33.696Z,24.25
2023-07-31T15:51:02.064Z,24.34
2023-07-31T15:53:28.982Z,24.37
2023-07-31T15:55:55.919Z,24.38
2023-07-31T15:58:22.849Z,24.17
2023-07-31T16:00:50.028Z,24.09
2023-07-31T16:03:18.125Z,24.01
2023-07-31T16:05:45.288Z,23.90
2023-07-31T16:08:12.159Z,23.77
2023-07-31T16:10:39.001Z,23.73
2023-07-31T16:13:06.287Z,23.71
2023-07-31T16:15:33.433Z,23.68
2023-07-31T16:18:00.444Z,23.68
2023-07-31T16:20:27.980Z,23.72
2023-07-31T16:22:55.743Z,23.73
2023-07-31T16:25:22.760Z,23.59
2023-07-31T16:27:49.679Z,23.53
2023-07-31T16:30:16.694Z,23.51
2023-07-31T16:32:43.837Z,23.44
2023-07-31T16:35:10.836Z,23.43
2023-07-31T16:37:38.188Z,23.35
2023-07-31T16:40:05.937Z,23.26
2023-07-31T16:42:32.784Z,23.21
2023-07-31T16:44:59.884Z,23.20
2023-07-31T16:47:27.256Z,23.21
2023-07-31T16:49:54.265Z,23.21
2023-07-31T16:52:22.182Z,23.18
2023-07-31T16:54:49.181Z,23.16
2023-07-31T16:57:15.948Z,23.11
2023-07-31T16:59:42.943Z,23.06
2023-07-31T17:02:09.933Z,23.03
2023-07-31T17:04:36.988Z,22.99
2023-07-31T17:07:04.125Z,22.93
2023-07-31T17:09:31.024Z,22.93
2023-07-31T17:11:57.984Z,22.91
2023-07-31T17:14:24.853Z,22.88
2023-07-31T17:16:52.104Z,22.81
2023-07-31T17:19:18.987Z,22.76
2023-07-31T17:21:45.953Z,22.76
2023-07-31T17:24:12.817Z,22.66
2023-07-31T17:26:39.605Z,22.48
2023-07-31T17:29:06.475Z,22.31
2023-07-31T17:31:35.792Z,22.17
2023-07-31T17:34:05.640Z,22.10
2023-07-31T17:36:33.271Z,21.98
2023-07-31T17:39:00.070Z,21.83
2023-07-31T17:41:28.628Z,21.62
2023-07-31T17:43:55.763Z,21.51
2023-07-31T17:46:23.206Z,21.45
2023-07-31T17:48:50.214Z,21.39
2023-07-31T17:51:17.122Z,21.22
2023-07-31T17:53:44.049Z,21.11
2023-07-31T17:56:10.981Z,21.02
2023-07-31T17:58:37.867Z,20.82
2023-07-31T18:01:04.781Z,20.72
2023-07-31T18:03:32.067Z,20.68
2023-07-31T18:05:58.976Z,20.67
2023-07-31T18:08:26.138Z,20.68
2023-07-31T18:10:53.086Z,20.62
2023-07-31T18:13:20.238Z,20.60
2023-07-31T18:15:48.496Z,20.57
2023-07-31T18:18:16.058Z,20.62
2023-07-31T18:20:43.013Z,20.64
2023-07-31T18:23:10.266Z,20.59
2023-07-31T18:25:37.191Z,20.52
2023-07-31T18:28:04.558Z,20.46
2023-07-31T18:30:31.809Z,20.33
2023-07-31T18:32:58.738Z,20.29
2023-07-31T18:35:25.711Z,20.23
2023-07-31T18:37:52.875Z,20.18
2023-07-31T18:40:19.858Z,20.11
2023-07-31T18:42:47.845Z,20.14
2023-07-31T18:45:14.972Z,20.19
2023-07-31T18:47:41.936Z,20.16
2023-07-31T18:50:09.246Z,20.13
2023-07-31T18:52:36.139Z,20.12
2023-07-31T18:55:03.082Z,20.12
2023-07-31T18:57:29.922Z,19.99
2023-07-31T18:59:56.970Z,19.90
2023-07-31T19:02:23.877Z,19.78
2023-07-31T19:04:50.761Z,19.73
2023-07-31T19:07:17.886Z,19.67
2023-07-31T19:09:44.769Z,19.60
2023-07-31T19:12:12.904Z,19.55
2023-07-31T19:14:40.088Z,19.52
2023-07-31T19:17:07.699Z,19.46
2023-07-31T19:19:34.802Z,19.40
2023-07-31T19:22:01.670Z,19.28
2023-07-31T19:24:35.213Z,19.26
2023-07-31T19:27:04.842Z,19.19
2023-07-31T19:29:32.351Z,19.14
2023-07-31T19:31:59.491Z,19.21
2023-07-31T19:34:26.674Z,19.23
2023-07-31T19:36:53.682Z,19.20
2023-07-31T19:39:21.174Z,19.18
2023-07-31T19:41:48.179Z,19.17
2023-07-31T19:44:15.219Z,19.14
2023-07-31T19:46:42.354Z,19.19
2023-07-31T19:49:09.679Z,19.21
2023-07-31T19:51:36.653Z,19.16
2023-07-31T19:54:03.576Z,19.16
2023-07-31T19:56:30.577Z,19.16
2023-07-31T19:58:57.766Z,19.12
2023-07-31T20:01:26.253Z,19.09
2023-07-31T20:03:54.914Z,19.06
2023-07-31T20:06:22.098Z,19.02
2023-07-31T20:08:49.094Z,18.90
2023-07-31T20:11:15.894Z,18.89
2023-07-31T20:13:43.137Z,18.94
2023-07-31T20:16:10.369Z,18.95
2023-07-31T20:18:40.027Z,18.93
2023-07-31T20:21:06.844Z,18.98
2023-07-31T20:23:43.052Z,19.01
2023-07-31T20:26:10.641Z,19.04
2023-07-31T20:28:37.759Z,19.02
2023-07-31T20:31:05.176Z,18.99
2023-07-31T20:33:32.341Z,18.92
2023-07-31T20:35:59.248Z,18.87
2023-07-31T20:38:26.105Z,18.92
2023-07-31T20:40:53.249Z,18.92
2023-07-31T20:43:20.469Z,18.90
2023-07-31T20:45:47.454Z,18.87
2023-07-31T20:48:15.714Z,18.87
2023-07-31T20:50:42.915Z,18.85
2023-07-31T20:53:09.922Z,18.87
2023-07-31T20:55:39.732Z,18.88
2023-07-31T20:58:08.052Z,18.87
2023-07-31T21:00:35.348Z,18.87
2023-07-31T21:03:05.543Z,18.90
2023-07-31T21:05:32.763Z,18.91
2023-07-31T21:08:00.435Z,18.90
2023-07-31T21:10:27.684Z,18.93
2023-07-31T21:12:55.208Z,18.95
2023-07-31T21:15:22.294Z,18.90
2023-07-31T21:17:49.236Z,18.87
2023-07-31T21:20:16.198Z,18.83
2023-07-31T21:22:45.291Z,18.85
2023-07-31T21:25:13.688Z,18.83
2023-07-31T21:27:40.614Z,18.76
2023-07-31T21:30:08.856Z,18.78
2023-07-31T21:32:35.751Z,18.75
2023-07-31T21:35:02.645Z,18.75
2023-07-31T21:37:29.832Z,18.72
2023-07-31T21:39:56.688Z,18.78
2023-07-31T21:42:23.696Z,18.80
2023-07-31T21:44:50.709Z,18.85
2023-07-31T21:47:18.242Z,18.87
2023-07-31T21:49:45.362Z,18.82
2023-07-31T21:52:12.480Z,18.77
2023-07-31T21:54:39.354Z,18.77
2023-07-31T21:57:06.298Z,18.73
2023-07-31T21:59:33.210Z,18.76
2023-07-31T22:02:00.280Z,18.79
2023-07-31T22:04:27.228Z,18.82
2023-07-31T22:06:54.227Z,18.83
2023-07-31T22:09:21.979Z,18.84
2023-07-31T22:11:49.423Z,18.85
2023-07-31T22:14:16.520Z,18.81
2023-07-31T22:16:43.804Z,18.82
2023-07-31T22:19:10.836Z,18.80
2023-07-31T22:21:38.072Z,18.81
2023-07-31T22:24:05.171Z,18.80
2023-07-31T22:26:32.028Z,18.77
2023-07-31T22:28:58.826Z,18.78
2023-07-31T22:31:25.975Z,18.73
2023-07-31T22:33:52.924Z,18.68
2023-07-31T22:36:20.038Z,18.63
2023-07-31T22:38:47.250Z,18.68
2023-07-31T22:41:14.195Z,18.68
2023-07-31T22:43:41.145Z,18.67
2023-07-31T22:46:08.080Z,18.65
2023-07-31T22:48:34.970Z,18.58
2023-07-31T22:51:01.850Z,18.53
2023-07-31T22:53:28.833Z,18.53
2023-07-31T22:55:55.914Z,18.57
2023-07-31T22:58:23.080Z,18.59
2023-07-31T23:00:50.035Z,18.56
2023-07-31T23:03:16.966Z,18.51
2023-07-31T23:05:45.085Z,18.50
2023-07-31T23:08:11.938Z,18.50
2023-07-31T23:10:40.277Z,18.52
2023-07-31T23:13:07.452Z,18.53
2023-07-31T23:15:34.257Z,18.51
2023-07-31T23:18:01.282Z,18.58
2023-07-31T23:20:28.452Z,18.64
2023-07-31T23:22:55.308Z,18.60
2023-07-31T23:25:22.259Z,18.63
2023-07-31T23:27:49.532Z,18.62
2023-07-31T23:30:16.627Z,18.61
2023-07-31T23:32:43.543Z,18.66
2023-07-31T23:35:10.457Z,18.67
2023-07-31T23:37:37.638Z,18.65
2023-07-31T23:40:05.034Z,18.60
2023-07-31T23:42:31.907Z,18.51
2023-07-31T23:45:10.325Z,18.56
2023-07-31T23:47:38.738Z,18.54
2023-07-31T23:50:10.002Z,18.54
2023-07-31T23:52:37.408Z,18.55
2023-07-31T23:55:04.872Z,18.60
2023-07-31T23:57:31.758Z,18.61
2023-07-31T23:59:58.700Z,18.57
